Terminal Aerodrome Forecast
Issued by NWS

Home | Current Version | Previous Version | Graphics & Text | Print | Product List | Glossary On
Versions: 1 2 3 4 5 6 7 8 9 10 11 12 13 14 15 16 17 18 19
000
FTUS43 KMPX 271120
TAFAXN
TAF
KAXN 271120Z 2712/2812 15007KT P6SM SCT050 BKN100
     FM271800 16010KT P6SM SCT040 BKN100
     FM280700 14007KT P6SM SCT009 OVC020
     FM281000 10004KT 5SM BR SCT007 OVC012=

USA.gov is the U.S. government's official web portal to all federal, state and local government web resources and services.